sensor_id;sensor_type;location;lat;lon;timestamp;pressure;altitude;pressure_sealevel;temperature;humidity
23643;BME280;11998;55.788;37.572;2022-08-20T00:00:58;100089.13;;;18.67;80.83
23643;BME280;11998;55.788;37.572;2022-08-20T00:02:00;100094.50;;;18.67;80.93
23643;BME280;11998;55.788;37.572;2022-08-20T00:03:05;100091.06;;;18.63;81.89
23643;BME280;11998;55.788;37.572;2022-08-20T00:04:06;100092.88;;;18.63;82.13
23643;BME280;11998;55.788;37.572;2022-08-20T00:05:08;100095.63;;;18.61;82.68
23643;BME280;11998;55.788;37.572;2022-08-20T00:06:13;100091.13;;;18.62;83.56
23643;BME280;11998;55.788;37.572;2022-08-20T00:07:14;100090.38;;;18.58;83.56
23643;BME280;11998;55.788;37.572;2022-08-20T00:08:14;100091.31;;;18.57;84.32
23643;BME280;11998;55.788;37.572;2022-08-20T00:09:15;100094.88;;;18.58;84.90
23643;BME280;11998;55.788;37.572;2022-08-20T00:10:15;100096.75;;;18.56;85.12
23643;BME280;11998;55.788;37.572;2022-08-20T00:11:19;100089.50;;;18.58;85.84
23643;BME280;11998;55.788;37.572;2022-08-20T00:12:21;100090.50;;;18.55;86.17
23643;BME280;11998;55.788;37.572;2022-08-20T00:13:43;100094.13;;;18.54;87.11
23643;BME280;11998;55.788;37.572;2022-08-20T00:14:44;100085.28;;;18.52;87.15
23643;BME280;11998;55.788;37.572;2022-08-20T00:15:45;100095.16;;;18.52;87.92
23643;BME280;11998;55.788;37.572;2022-08-20T00:16:46;100084.41;;;18.52;88.19
23643;BME280;11998;55.788;37.572;2022-08-20T00:17:48;100093.53;;;18.47;88.67
23643;BME280;11998;55.788;37.572;2022-08-20T00:18:49;100092.63;;;18.48;88.98
23643;BME280;11998;55.788;37.572;2022-08-20T00:19:50;100098.88;;;18.47;89.11
23643;BME280;11998;55.788;37.572;2022-08-20T00:20:53;100096.09;;;18.51;89.23
23643;BME280;11998;55.788;37.572;2022-08-20T00:21:53;100094.44;;;18.48;89.31
23643;BME280;11998;55.788;37.572;2022-08-20T00:22:56;100091.78;;;18.46;89.81
23643;BME280;11998;55.788;37.572;2022-08-20T00:23:57;100086.41;;;18.46;90.03
23643;BME280;11998;55.788;37.572;2022-08-20T00:24:58;100088.31;;;18.44;90.37
23643;BME280;11998;55.788;37.572;2022-08-20T00:25:58;100091.94;;;18.43;90.33
23643;BME280;11998;55.788;37.572;2022-08-20T00:26:59;100093.75;;;18.43;90.58
23643;BME280;11998;55.788;37.572;2022-08-20T00:28:00;100086.56;;;18.43;91.08
23643;BME280;11998;55.788;37.572;2022-08-20T00:29:03;100095.69;;;18.39;91.35
23643;BME280;11998;55.788;37.572;2022-08-20T00:30:06;100100.13;;;18.40;91.74
23643;BME280;11998;55.788;37.572;2022-08-20T00:31:10;100092.22;;;18.37;92.35
23643;BME280;11998;55.788;37.572;2022-08-20T00:32:11;100087.84;;;18.35;92.81
23643;BME280;11998;55.788;37.572;2022-08-20T00:33:20;100093.16;;;18.36;93.18
23643;BME280;11998;55.788;37.572;2022-08-20T00:34:21;100103.06;;;18.34;93.33
23643;BME280;11998;55.788;37.572;2022-08-20T00:35:25;100104.94;;;18.32;93.65
23643;BME280;11998;55.788;37.572;2022-08-20T00:36:26;100088.91;;;18.31;93.89
23643;BME280;11998;55.788;37.572;2022-08-20T00:37:26;100096.03;;;18.32;94.32
23643;BME280;11998;55.788;37.572;2022-08-20T00:38:27;100097.97;;;18.28;94.31
23643;BME280;11998;55.788;37.572;2022-08-20T00:39:27;100090.88;;;18.27;94.82
23643;BME280;11998;55.788;37.572;2022-08-20T00:40:34;100093.63;;;18.26;95.35
23643;BME280;11998;55.788;37.572;2022-08-20T00:41:35;100094.50;;;18.26;95.86
23643;BME280;11998;55.788;37.572;2022-08-20T00:42:46;100094.50;;;18.26;96.25
23643;BME280;11998;55.788;37.572;2022-08-20T00:44:03;100091.13;;;18.21;96.56
23643;BME280;11998;55.788;37.572;2022-08-20T00:45:04;100093.72;;;18.23;96.96
23643;BME280;11998;55.788;37.572;2022-08-20T00:46:21;100091.13;;;18.21;97.36
23643;BME280;11998;55.788;37.572;2022-08-20T00:47:21;100093.94;;;18.18;97.88
23643;BME280;11998;55.788;37.572;2022-08-20T00:48:24;100094.09;;;18.15;98.26
23643;BME280;11998;55.788;37.572;2022-08-20T00:49:29;100094.88;;;18.17;98.65
23643;BME280;11998;55.788;37.572;2022-08-20T00:50:33;100089.66;;;18.14;99.02
23643;BME280;11998;55.788;37.572;2022-08-20T00:51:41;100099.44;;;18.15;99.41
23643;BME280;11998;55.788;37.572;2022-08-20T00:52:45;100092.47;;;18.11;99.55
23643;BME280;11998;55.788;37.572;2022-08-20T00:53:47;100093.28;;;18.13;99.80
23643;BME280;11998;55.788;37.572;2022-08-20T00:54:57;100093.38;;;18.10;100.00
23643;BME280;11998;55.788;37.572;2022-08-20T00:55:59;100091.78;;;18.06;100.00
23643;BME280;11998;55.788;37.572;2022-08-20T00:57:04;100102.50;;;18.06;100.00
23643;BME280;11998;55.788;37.572;2022-08-20T00:58:07;100094.47;;;18.06;100.00
23643;BME280;11998;55.788;37.572;2022-08-20T00:59:12;100097.28;;;18.03;100.00
23643;BME280;11998;55.788;37.572;2022-08-20T01:00:18;100098.16;;;18.03;100.00
23643;BME280;11998;55.788;37.572;2022-08-20T01:01:19;100094.69;;;18.01;100.00
23643;BME280;11998;55.788;37.572;2022-08-20T01:02:23;100089.41;;;17.98;100.00
23643;BME280;11998;55.788;37.572;2022-08-20T01:03:24;100095.69;;;17.99;100.00
23643;BME280;11998;55.788;37.572;2022-08-20T01:04:30;100093.91;;;17.98;100.00
23643;BME280;11998;55.788;37.572;2022-08-20T01:05:30;100099.41;;;17.95;100.00
23643;BME280;11998;55.788;37.572;2022-08-20T01:06:31;100101.28;;;17.93;100.00
23643;BME280;11998;55.788;37.572;2022-08-20T01:07:31;100100.34;;;17.94;100.00
23643;BME280;11998;55.788;37.572;2022-08-20T01:08:33;100095.19;;;17.89;100.00
23643;BME280;11998;55.788;37.572;2022-08-20T01:09:36;100102.44;;;17.87;100.00
23643;BME280;11998;55.788;37.572;2022-08-20T01:10:42;100098.91;;;17.85;100.00
23643;BME280;11998;55.788;37.572;2022-08-20T01:11:44;100095.38;;;17.84;100.00
23643;BME280;11998;55.788;37.572;2022-08-20T01:12:46;100102.66;;;17.81;100.00
23643;BME280;11998;55.788;37.572;2022-08-20T01:13:48;100099.91;;;17.82;100.00
23643;BME280;11998;55.788;37.572;2022-08-20T01:14:48;100100.78;;;17.83;100.00
23643;BME280;11998;55.788;37.572;2022-08-20T01:15:51;100101.66;;;17.83;100.00
23643;BME280;11998;55.788;37.572;2022-08-20T01:17:03;100095.56;;;17.80;100.00
23643;BME280;11998;55.788;37.572;2022-08-20T01:18:09;100092.94;;;17.78;100.00
23643;BME280;11998;55.788;37.572;2022-08-20T01:19:12;100101.06;;;17.77;100.00
23643;BME280;11998;55.788;37.572;2022-08-20T01:20:22;100091.34;;;17.74;100.00
23643;BME280;11998;55.788;37.572;2022-08-20T01:21:24;100105.66;;;17.73;100.00
23643;BME280;11998;55.788;37.572;2022-08-20T01:24:21;100102.28;;;17.68;100.00
23643;BME280;11998;55.788;37.572;2022-08-20T01:25:51;100105.88;;;17.67;100.00
23643;BME280;11998;55.788;37.572;2022-08-20T01:26:50;100099.72;;;17.65;100.00
23643;BME280;11998;55.788;37.572;2022-08-20T01:27:51;100105.16;;;17.64;100.00
23643;BME280;11998;55.788;37.572;2022-08-20T01:29:03;100096.19;;;17.65;100.00
23643;BME280;11998;55.788;37.572;2022-08-20T01:30:05;100106.97;;;17.63;100.00
23643;BME280;11998;55.788;37.572;2022-08-20T01:31:13;100105.22;;;17.62;100.00
23643;BME280;11998;55.788;37.572;2022-08-20T01:32:13;100096.34;;;17.60;100.00
23643;BME280;11998;55.788;37.572;2022-08-20T01:33:16;100099.03;;;17.60;100.00
23643;BME280;11998;55.788;37.572;2022-08-20T01:34:21;100106.13;;;17.61;100.00
23643;BME280;11998;55.788;37.572;2022-08-20T01:35:22;100107.06;;;17.60;100.00
23643;BME280;11998;55.788;37.572;2022-08-20T01:36:34;100115.09;;;17.60;100.00
23643;BME280;11998;55.788;37.572;2022-08-20T01:37:35;100109.94;;;17.55;100.00
23643;BME280;11998;55.788;37.572;2022-08-20T01:38:36;100108.13;;;17.56;100.00
23643;BME280;11998;55.788;37.572;2022-08-20T01:39:37;100115.22;;;17.57;100.00
23643;BME280;11998;55.788;37.572;2022-08-20T01:40:51;100108.19;;;17.54;100.00
23643;BME280;11998;55.788;37.572;2022-08-20T01:42:09;100113.63;;;17.53;100.00
23643;BME280;11998;55.788;37.572;2022-08-20T01:43:12;100111.88;;;17.52;100.00
23643;BME280;11998;55.788;37.572;2022-08-20T01:44:13;100112.88;;;17.49;100.00
23643;BME280;11998;55.788;37.572;2022-08-20T01:45:13;100120.03;;;17.49;100.00
23643;BME280;11998;55.788;37.572;2022-08-20T01:46:16;100114.69;;;17.49;100.00
23643;BME280;11998;55.788;37.572;2022-08-20T01:47:24;100110.22;;;17.48;100.00
23643;BME280;11998;55.788;37.572;2022-08-20T01:48:25;100119.19;;;17.47;100.00
23643;BME280;11998;55.788;37.572;2022-08-20T01:49:29;100109.50;;;17.44;100.00
23643;BME280;11998;55.788;37.572;2022-08-20T01:50:31;100117.59;;;17.43;100.00
23643;BME280;11998;55.788;37.572;2022-08-20T01:51:33;100114.97;;;17.41;100.00
23643;BME280;11998;55.788;37.572;2022-08-20T01:53:27;100122.94;;;17.43;100.00
23643;BME280;11998;55.788;37.572;2022-08-20T01:54:31;100124.94;;;17.38;100.00
23643;BME280;11998;55.788;37.572;2022-08-20T01:55:33;100115.19;;;17.35;100.00
23643;BME280;11998;55.788;37.572;2022-08-20T01:56:35;100121.44;;;17.36;100.00
23643;BME280;11998;55.788;37.572;2022-08-20T01:57:49;100123.31;;;17.33;100.00
23643;BME280;11998;55.788;37.572;2022-08-20T01:58:52;100112.59;;;17.33;100.00
23643;BME280;11998;55.788;37.572;2022-08-20T01:59:54;100119.75;;;17.33;100.00
23643;BME280;11998;55.788;37.572;2022-08-20T02:00:56;100117.94;;;17.33;100.00
23643;BME280;11998;55.788;37.572;2022-08-20T02:01:58;100109.97;;;17.32;100.00
23643;BME280;11998;55.788;37.572;2022-08-20T02:02:58;100120.69;;;17.32;100.00
23643;BME280;11998;55.788;37.572;2022-08-20T02:04:02;100111.78;;;17.31;100.00
23643;BME280;11998;55.788;37.572;2022-08-20T02:05:03;100113.59;;;17.31;100.00
23643;BME280;11998;55.788;37.572;2022-08-20T02:06:04;100114.59;;;17.28;100.00
23643;BME280;11998;55.788;37.572;2022-08-20T02:07:07;100116.31;;;17.29;100.00
23643;BME280;11998;55.788;37.572;2022-08-20T02:08:11;100119.94;;;17.28;100.00
23643;BME280;11998;55.788;37.572;2022-08-20T02:09:12;100109.34;;;17.25;100.00
23643;BME280;11998;55.788;37.572;2022-08-20T02:10:15;100123.56;;;17.27;100.00
23643;BME280;11998;55.788;37.572;2022-08-20T02:11:16;100122.81;;;17.24;100.00
23643;BME280;11998;55.788;37.572;2022-08-20T02:12:17;100122.81;;;17.24;100.00
23643;BME280;11998;55.788;37.572;2022-08-20T02:13:18;100113.94;;;17.22;100.00
23643;BME280;11998;55.788;37.572;2022-08-20T02:14:19;100126.47;;;17.21;100.00
23643;BME280;11998;55.788;37.572;2022-08-20T02:15:20;100120.16;;;17.22;100.00
23643;BME280;11998;55.788;37.572;2022-08-20T02:16:24;100119.28;;;17.22;100.00
23643;BME280;11998;55.788;37.572;2022-08-20T02:17:28;100122.91;;;17.21;100.00
23643;BME280;11998;55.788;37.572;2022-08-20T02:18:29;100122.97;;;17.19;100.00
23643;BME280;11998;55.788;37.572;2022-08-20T02:19:34;100126.59;;;17.18;100.00
23643;BME280;11998;55.788;37.572;2022-08-20T02:20:38;100124.03;;;17.15;100.00
23643;BME280;11998;55.788;37.572;2022-08-20T02:21:42;100124.91;;;17.16;100.00
23643;BME280;11998;55.788;37.572;2022-08-20T02:22:51;100120.47;;;17.15;100.00
23643;BME280;11998;55.788;37.572;2022-08-20T02:23:53;100120.47;;;17.15;100.00
23643;BME280;11998;55.788;37.572;2022-08-20T02:24:53;100133.09;;;17.11;100.00
23643;BME280;11998;55.788;37.572;2022-08-20T02:25:54;100121.56;;;17.09;100.00
23643;BME280;11998;55.788;37.572;2022-08-20T02:26:55;100123.31;;;17.10;100.00
23643;BME280;11998;55.788;37.572;2022-08-20T02:27:56;100119.81;;;17.08;100.00
23643;BME280;11998;55.788;37.572;2022-08-20T02:28:58;100118.91;;;17.09;100.00
23643;BME280;11998;55.788;37.572;2022-08-20T02:29:59;100122.50;;;17.08;100.00
23643;BME280;11998;55.788;37.572;2022-08-20T02:30:59;100127.97;;;17.05;100.00
23643;BME280;11998;55.788;37.572;2022-08-20T02:32:02;100124.50;;;17.03;100.00
23643;BME280;11998;55.788;37.572;2022-08-20T02:33:08;100122.75;;;17.02;100.00
23643;BME280;11998;55.788;37.572;2022-08-20T02:34:11;100125.38;;;17.03;100.00
23643;BME280;11998;55.788;37.572;2022-08-20T02:35:12;100124.50;;;17.03;100.00
23643;BME280;11998;55.788;37.572;2022-08-20T02:36:15;100128.09;;;17.02;100.00
23643;BME280;11998;55.788;37.572;2022-08-20T02:37:17;100118.41;;;16.99;100.00
23643;BME280;11998;55.788;37.572;2022-08-20T02:38:18;100128.09;;;17.02;100.00
23643;BME280;11998;55.788;37.572;2022-08-20T02:39:19;100129.97;;;17.00;100.00
23643;BME280;11998;55.788;37.572;2022-08-20T02:40:22;100130.78;;;17.02;100.00
23643;BME280;11998;55.788;37.572;2022-08-20T02:41:22;100132.59;;;17.01;100.00
23643;BME280;11998;55.788;37.572;2022-08-20T02:42:23;100137.06;;;17.01;100.00
23643;BME280;11998;55.788;37.572;2022-08-20T02:43:24;100135.19;;;17.03;100.00
23643;BME280;11998;55.788;37.572;2022-08-20T02:44:24;100135.19;;;17.03;100.00
23643;BME280;11998;55.788;37.572;2022-08-20T02:45:25;100124.50;;;17.03;100.00
23643;BME280;11998;55.788;37.572;2022-08-20T02:46:26;100136.94;;;17.04;100.00
23643;BME280;11998;55.788;37.572;2022-08-20T02:47:27;100135.19;;;17.03;100.00
23643;BME280;11998;55.788;37.572;2022-08-20T02:48:28;100131.59;;;17.04;100.00
23643;BME280;11998;55.788;37.572;2022-08-20T02:49:30;100124.50;;;17.03;100.00
23643;BME280;11998;55.788;37.572;2022-08-20T02:50:31;100129.84;;;17.03;100.00
23643;BME280;11998;55.788;37.572;2022-08-20T02:51:32;100128.84;;;17.06;100.00
23643;BME280;11998;55.788;37.572;2022-08-20T02:52:32;100131.47;;;17.07;100.00
23643;BME280;11998;55.788;37.572;2022-08-20T02:53:38;100137.69;;;17.08;100.00
23643;BME280;11998;55.788;37.572;2022-08-20T02:54:40;100140.44;;;17.06;100.00
23643;BME280;11998;55.788;37.572;2022-08-20T02:55:40;100139.44;;;17.09;100.00
23643;BME280;11998;55.788;37.572;2022-08-20T02:56:41;100139.50;;;17.07;100.00
23643;BME280;11998;55.788;37.572;2022-08-20T02:57:42;100141.19;;;17.10;100.00
23643;BME280;11998;55.788;37.572;2022-08-20T02:58:43;100141.97;;;17.13;100.00
23643;BME280;11998;55.788;37.572;2022-08-20T02:59:45;100137.69;;;17.08;100.00
23643;BME280;11998;55.788;37.572;2022-08-20T03:00:47;100145.66;;;17.09;100.00
23643;BME280;11998;55.788;37.572;2022-08-20T03:01:47;100147.31;;;17.13;100.00
23643;BME280;11998;55.788;37.572;2022-08-20T03:02:48;100138.34;;;17.14;100.00
23643;BME280;11998;55.788;37.572;2022-08-20T03:03:49;100140.22;;;17.12;100.00
23643;BME280;11998;55.788;37.572;2022-08-20T03:04:50;100139.22;;;17.15;100.00
23643;BME280;11998;55.788;37.572;2022-08-20T03:05:54;100140.91;;;17.17;100.00
23643;BME280;11998;55.788;37.572;2022-08-20T03:06:56;100138.09;;;17.20;100.00
23643;BME280;11998;55.788;37.572;2022-08-20T03:07:57;100143.47;;;17.20;100.00
23643;BME280;11998;55.788;37.572;2022-08-20T03:08:57;100145.25;;;17.20;100.00
23643;BME280;11998;55.788;37.572;2022-08-20T03:09:58;100143.31;;;17.23;100.00
23643;BME280;11998;55.788;37.572;2022-08-20T03:10:58;100146.84;;;17.25;100.00
23643;BME280;11998;55.788;37.572;2022-08-20T03:11:59;100146.84;;;17.25;100.00
23643;BME280;11998;55.788;37.572;2022-08-20T03:13:00;100148.59;;;17.26;100.00
23643;BME280;11998;55.788;37.572;2022-08-20T03:14:01;100156.63;;;17.26;100.00
23643;BME280;11998;55.788;37.572;2022-08-20T03:15:03;100153.94;;;17.26;100.00
23643;BME280;11998;55.788;37.572;2022-08-20T03:16:04;100156.44;;;17.31;100.00
23643;BME280;11998;55.788;37.572;2022-08-20T03:17:05;100157.44;;;17.28;100.00
23643;BME280;11998;55.788;37.572;2022-08-20T03:18:06;100163.66;;;17.29;100.00
23643;BME280;11998;55.788;37.572;2022-08-20T03:19:06;100149.34;;;17.30;100.00
23643;BME280;11998;55.788;37.572;2022-08-20T03:20:08;100153.69;;;17.32;100.00
23643;BME280;11998;55.788;37.572;2022-08-20T03:21:09;100151.72;;;17.38;100.00
23643;BME280;11998;55.788;37.572;2022-08-20T03:22:10;100155.22;;;17.40;100.00
23643;BME280;11998;55.788;37.572;2022-08-20T03:23:12;100149.84;;;17.40;100.00
23643;BME280;11998;55.788;37.572;2022-08-20T03:24:12;100146.13;;;17.44;100.00
23643;BME280;11998;55.788;37.572;2022-08-20T03:25:14;100149.59;;;17.46;100.00
23643;BME280;11998;55.788;37.572;2022-08-20T03:26:15;100145.75;;;17.53;100.00
23643;BME280;11998;55.788;37.572;2022-08-20T03:27:16;100155.34;;;17.58;100.00
23643;BME280;11998;55.788;37.572;2022-08-20T03:28:17;100152.50;;;17.63;100.00
23643;BME280;11998;55.788;37.572;2022-08-20T03:29:18;100154.59;;;17.78;100.00
23643;BME280;11998;55.788;37.572;2022-08-20T03:30:19;100149.81;;;17.86;100.00
23643;BME280;11998;55.788;37.572;2022-08-20T03:31:20;100149.03;;;18.05;100.00
23643;BME280;11998;55.788;37.572;2022-08-20T03:32:21;100152.38;;;18.10;100.00
23643;BME280;11998;55.788;37.572;2022-08-20T03:33:22;100147.34;;;18.24;100.00
23643;BME280;11998;55.788;37.572;2022-08-20T03:34:23;100141.31;;;18.39;100.00
23643;BME280;11998;55.788;37.572;2022-08-20T03:35:26;100150.94;;;18.43;100.00
23643;BME280;11998;55.788;37.572;2022-08-20T03:36:28;100145.25;;;18.51;100.00
23643;BME280;11998;55.788;37.572;2022-08-20T03:37:30;100137.19;;;18.73;100.00
23643;BME280;11998;55.788;37.572;2022-08-20T03:38:31;100145.34;;;18.90;100.00
23643;BME280;11998;55.788;37.572;2022-08-20T03:39:32;100140.84;;;19.10;100.00
23643;BME280;11998;55.788;37.572;2022-08-20T03:40:34;100138.19;;;19.28;100.00
23643;BME280;11998;55.788;37.572;2022-08-20T03:41:34;100143.22;;;19.55;98.57
23643;BME280;11998;55.788;37.572;2022-08-20T03:42:35;100146.09;;;19.88;95.49
23643;BME280;11998;55.788;37.572;2022-08-20T03:43:36;100145.16;;;20.06;93.34
23643;BME280;11998;55.788;37.572;2022-08-20T03:44:36;100135.41;;;20.57;89.23
23643;BME280;11998;55.788;37.572;2022-08-20T03:45:38;100135.38;;;21.07;84.14
23643;BME280;11998;55.788;37.572;2022-08-20T03:46:40;100130.63;;;21.61;79.82
23643;BME280;11998;55.788;37.572;2022-08-20T03:47:40;100131.28;;;21.96;75.37
23643;BME280;11998;55.788;37.572;2022-08-20T03:48:41;100135.38;;;22.64;70.74
23643;BME280;11998;55.788;37.572;2022-08-20T03:49:42;100129.75;;;22.97;66.82
23643;BME280;11998;55.788;37.572;2022-08-20T03:50:43;100128.53;;;23.72;63.02
23643;BME280;11998;55.788;37.572;2022-08-20T03:51:44;100124.47;;;24.46;58.32
23643;BME280;11998;55.788;37.572;2022-08-20T03:52:44;100124.66;;;24.43;57.18
23643;BME280;11998;55.788;37.572;2022-08-20T03:53:45;100127.44;;;24.94;53.97
23643;BME280;11998;55.788;37.572;2022-08-20T03:54:45;100122.56;;;25.24;52.90
23643;BME280;11998;55.788;37.572;2022-08-20T03:55:47;100132.91;;;25.56;50.66
23643;BME280;11998;55.788;37.572;2022-08-20T03:56:48;100123.75;;;25.82;49.72
23643;BME280;11998;55.788;37.572;2022-08-20T03:57:52;100129.88;;;26.56;47.49
23643;BME280;11998;55.788;37.572;2022-08-20T03:58:53;100130.63;;;27.04;45.88
23643;BME280;11998;55.788;37.572;2022-08-20T03:59:54;100118.22;;;27.78;43.54
23643;BME280;11998;55.788;37.572;2022-08-20T04:00:54;100137.81;;;27.05;43.96
23643;BME280;11998;55.788;37.572;2022-08-20T04:01:55;100124.28;;;26.92;44.48
23643;BME280;11998;55.788;37.572;2022-08-20T04:02:56;100120.28;;;26.74;44.53
23643;BME280;11998;55.788;37.572;2022-08-20T04:03:56;100133.22;;;27.17;43.86
23643;BME280;11998;55.788;37.572;2022-08-20T04:04:57;100132.28;;;27.95;42.10
23643;BME280;11998;55.788;37.572;2022-08-20T04:05:58;100115.66;;;28.62;39.99
23643;BME280;11998;55.788;37.572;2022-08-20T04:06:58;100127.66;;;28.91;38.62
23643;BME280;11998;55.788;37.572;2022-08-20T04:08:01;100120.97;;;29.76;37.84
23643;BME280;11998;55.788;37.572;2022-08-20T04:09:02;100125.66;;;29.55;36.72
23643;BME280;11998;55.788;37.572;2022-08-20T04:10:06;100129.25;;;30.53;35.27
23643;BME280;11998;55.788;37.572;2022-08-20T04:11:08;100130.41;;;30.80;34.64
23643;BME280;11998;55.788;37.572;2022-08-20T04:12:09;100127.50;;;31.65;33.25
23643;BME280;11998;55.788;37.572;2022-08-20T04:13:13;100126.31;;;31.03;33.33
23643;BME280;11998;55.788;37.572;2022-08-20T04:14:14;100134.63;;;31.11;33.30
23643;BME280;11998;55.788;37.572;2022-08-20T04:15:16;100124.50;;;32.31;31.98
23643;BME280;11998;55.788;37.572;2022-08-20T04:16:16;100123.88;;;33.33;30.01
23643;BME280;11998;55.788;37.572;2022-08-20T04:17:18;100115.75;;;33.49;29.55
23643;BME280;11998;55.788;37.572;2022-08-20T04:18:19;100124.81;;;33.16;29.67
23643;BME280;11998;55.788;37.572;2022-08-20T04:19:22;100125.16;;;32.87;29.61
23643;BME280;11998;55.788;37.572;2022-08-20T04:20:24;100121.94;;;31.84;30.41
23643;BME280;11998;55.788;37.572;2022-08-20T04:21:25;100125.28;;;32.85;29.81
23643;BME280;11998;55.788;37.572;2022-08-20T04:22:25;100111.44;;;33.21;28.87
23643;BME280;11998;55.788;37.572;2022-08-20T04:23:26;100118.13;;;33.44;29.11
23643;BME280;11998;55.788;37.572;2022-08-20T04:24:26;100110.13;;;34.26;27.85
23643;BME280;11998;55.788;37.572;2022-08-20T04:25:28;100106.91;;;34.63;26.93
23643;BME280;11998;55.788;37.572;2022-08-20T04:26:31;100107.53;;;34.81;26.57
23643;BME280;11998;55.788;37.572;2022-08-20T04:27:37;100122.53;;;34.70;26.65
23643;BME280;11998;55.788;37.572;2022-08-20T04:28:37;100111.94;;;35.70;25.92
23643;BME280;11998;55.788;37.572;2022-08-20T04:29:39;100109.28;;;35.93;24.92
23643;BME280;11998;55.788;37.572;2022-08-20T04:30:42;100114.69;;;36.32;24.58
23643;BME280;11998;55.788;37.572;2022-08-20T04:31:43;100118.03;;;35.10;25.19
23643;BME280;11998;55.788;37.572;2022-08-20T04:32:43;100118.41;;;34.91;25.67
23643;BME280;11998;55.788;37.572;2022-08-20T04:33:44;100114.09;;;33.73;26.92
23643;BME280;11998;55.788;37.572;2022-08-20T04:34:45;100111.16;;;34.25;26.57
23643;BME280;11998;55.788;37.572;2022-08-20T04:35:45;100101.97;;;35.69;25.19
23643;BME280;11998;55.788;37.572;2022-08-20T04:36:46;100103.41;;;36.65;24.03
23643;BME280;11998;55.788;37.572;2022-08-20T04:37:47;100100.94;;;37.52;23.51
23643;BME280;11998;55.788;37.572;2022-08-20T04:38:48;100099.34;;;37.28;23.35
23643;BME280;11998;55.788;37.572;2022-08-20T04:39:49;100099.16;;;38.16;22.30
23643;BME280;11998;55.788;37.572;2022-08-20T04:41:08;100106.88;;;35.90;24.04
23643;BME280;11998;55.788;37.572;2022-08-20T04:42:08;100103.25;;;34.95;24.82
23643;BME280;11998;55.788;37.572;2022-08-20T04:43:09;100101.34;;;34.22;25.94
23643;BME280;11998;55.788;37.572;2022-08-20T04:44:10;100102.78;;;34.51;25.69
23643;BME280;11998;55.788;37.572;2022-08-20T04:45:11;100103.53;;;35.24;25.33
23643;BME280;11998;55.788;37.572;2022-08-20T04:46:11;100100.81;;;34.02;25.74
23643;BME280;11998;55.788;37.572;2022-08-20T04:47:18;100101.19;;;32.53;27.66
23643;BME280;11998;55.788;37.572;2022-08-20T04:48:21;100104.44;;;32.13;28.00
23643;BME280;11998;55.788;37.572;2022-08-20T04:49:24;100103.84;;;31.92;28.54
23643;BME280;11998;55.788;37.572;2022-08-20T04:50:25;100108.66;;;31.25;29.39
23643;BME280;11998;55.788;37.572;2022-08-20T04:51:26;100105.69;;;31.46;30.04
23643;BME280;11998;55.788;37.572;2022-08-20T04:52:27;100107.22;;;32.57;28.38
23643;BME280;11998;55.788;37.572;2022-08-20T04:53:28;100099.66;;;33.63;27.26
23643;BME280;11998;55.788;37.572;2022-08-20T04:54:28;100093.78;;;34.32;26.12
23643;BME280;11998;55.788;37.572;2022-08-20T04:55:30;100108.91;;;32.50;27.14
23643;BME280;11998;55.788;37.572;2022-08-20T04:56:33;100100.59;;;33.37;26.93
23643;BME280;11998;55.788;37.572;2022-08-20T04:57:37;100085.00;;;34.12;26.18
23643;BME280;11998;55.788;37.572;2022-08-20T04:58:39;100095.00;;;34.70;25.27
23643;BME280;11998;55.788;37.572;2022-08-20T04:59:40;100100.50;;;34.70;25.40
23643;BME280;11998;55.788;37.572;2022-08-20T05:00:47;100092.50;;;36.26;23.81
23643;BME280;11998;55.788;37.572;2022-08-20T05:01:48;100091.44;;;36.35;23.67
23643;BME280;11998;55.788;37.572;2022-08-20T05:02:49;100095.31;;;37.45;22.27
23643;BME280;11998;55.788;37.572;2022-08-20T05:03:50;100091.50;;;37.61;22.07
23643;BME280;11998;55.788;37.572;2022-08-20T05:04:53;100088.63;;;38.69;21.07
23643;BME280;11998;55.788;37.572;2022-08-20T05:05:54;100091.31;;;38.63;20.79
23643;BME280;11998;55.788;37.572;2022-08-20T05:06:56;100096.19;;;39.45;20.04
23643;BME280;11998;55.788;37.572;2022-08-20T05:07:56;100096.19;;;39.92;19.47
23643;BME280;11998;55.788;37.572;2022-08-20T05:08:59;100090.75;;;40.19;19.29
23643;BME280;11998;55.788;37.572;2022-08-20T05:10:03;100097.81;;;40.55;18.91
23643;BME280;11998;55.788;37.572;2022-08-20T05:11:05;100105.81;;;39.97;19.08
23643;BME280;11998;55.788;37.572;2022-08-20T05:12:06;100101.47;;;39.05;20.02
23643;BME280;11998;55.788;37.572;2022-08-20T05:13:07;100102.34;;;39.40;19.63
23643;BME280;11998;55.788;37.572;2022-08-20T05:14:08;100101.66;;;38.97;19.93
23643;BME280;11998;55.788;37.572;2022-08-20T05:15:10;100084.69;;;39.96;19.37
23643;BME280;11998;55.788;37.572;2022-08-20T05:16:12;100103.41;;;40.48;19.02
23643;BME280;11998;55.788;37.572;2022-08-20T05:17:18;100101.28;;;40.57;18.69
23643;BME280;11998;55.788;37.572;2022-08-20T05:18:23;100086.28;;;41.04;18.23
23643;BME280;11998;55.788;37.572;2022-08-20T05:19:24;100098.88;;;41.13;18.37
23643;BME280;11998;55.788;37.572;2022-08-20T05:20:26;100092.31;;;41.65;17.61
23643;BME280;11998;55.788;37.572;2022-08-20T05:21:29;100095.19;;;41.39;17.68
23643;BME280;11998;55.788;37.572;2022-08-20T05:22:30;100103.44;;;39.93;18.66
23643;BME280;11998;55.788;37.572;2022-08-20T05:23:32;100099.75;;;40.54;18.38